Time;durP1;ratioP1;P1;durP2;ratioP2;P2;SDS_P1;SDS_P2;PMS_P1;PMS_P2;Temp;Humidity;BMP_temperature;BMP_pressure;BME280_temperature;BME280_humidity;BME280_pressure;Samples;Min_cycle;Max_cycle;Signal;HPM_P1;HPM_P2
2021/05/27 00:01:54;;;;;;;0.80;0.73;;;;;;;10.16;100.00;100448.59;5075420;28;20460;-67
2021/05/27 00:04:20;;;;;;;2.40;1.03;;;;;;;10.06;100.00;100459.63;5076581;28;20433;-66
2021/05/27 00:06:46;;;;;;;0.60;0.60;;;;;;;9.98;100.00;100461.13;5076577;28;20444;-66
2021/05/27 00:09:12;;;;;;;1.90;0.90;;;;;;;9.89;100.00;100467.53;5076398;28;20441;-66
2021/05/27 00:11:38;;;;;;;1.10;0.70;;;;;;;9.85;100.00;100453.78;5075492;28;20453;-66
2021/05/27 00:14:05;;;;;;;0.93;0.70;;;;;;;9.84;100.00;100452.19;5076321;28;20452;-66
2021/05/27 00:16:31;;;;;;;2.30;0.87;;;;;;;9.83;100.00;100459.50;5076358;28;20519;-66
2021/05/27 00:18:57;;;;;;;1.37;0.80;;;;;;;9.83;100.00;100459.50;5076060;28;20452;-67
2021/05/27 00:21:23;;;;;;;0.77;0.73;;;;;;;9.83;100.00;100459.50;5075423;28;20472;-67
2021/05/27 00:23:49;;;;;;;1.80;0.70;;;;;;;9.84;100.00;100465.72;5076059;28;20445;-67
2021/05/27 00:26:15;;;;;;;0.80;0.70;;;;;;;9.82;100.00;100452.47;5076300;28;20490;-66
2021/05/27 00:28:41;;;;;;;0.73;0.53;;;;;;;9.84;100.00;100458.41;5076172;28;20441;-67
2021/05/27 00:31:09;;;;;;;1.70;0.83;;;;;;;9.77;100.00;100471.50;5075316;28;20453;-67
2021/05/27 00:33:35;;;;;;;0.90;0.80;;;;;;;9.80;100.00;100467.41;5075744;28;20848;-67
2021/05/27 00:36:02;;;;;;;2.43;1.00;;;;;;;9.81;100.00;100460.91;5075946;28;20534;-67
2021/05/27 00:38:28;;;;;;;1.80;1.10;;;;;;;9.77;100.00;100471.50;5076282;28;20441;-67
2021/05/27 00:40:54;;;;;;;1.93;0.90;;;;;;;9.77;100.00;100476.91;5075460;28;20445;-68
2021/05/27 00:43:20;;;;;;;1.43;0.87;;;;;;;9.74;100.00;100477.53;5075090;28;20536;-66
2021/05/27 00:45:46;;;;;;;1.40;0.67;;;;;;;9.72;100.00;100478.91;5075924;28;20441;-67
2021/05/27 00:48:57;;;;;;;2.10;0.77;;;;;;;9.58;100.00;100473.50;5075516;28;20449;-67
2021/05/27 00:51:01;;;;;;;0.70;0.70;;;;;;;9.54;100.00;100480.59;5074683;28;20449;-68
2021/05/27 00:53:28;;;;;;;1.43;1.10;;;;;;;9.53;100.00;100476.28;5075895;28;20895;-67
2021/05/27 00:55:54;;;;;;;1.03;0.83;;;;;;;9.48;100.00;100485.28;5075636;28;20485;-66
2021/05/27 00:58:22;;;;;;;1.80;1.53;;;;;;;9.44;100.00;100470.75;5074957;28;20895;-67
2021/05/27 01:00:49;;;;;;;0.93;0.70;;;;;;;9.43;100.00;100482.66;5075294;28;20444;-67
2021/05/27 01:03:16;;;;;;;3.50;1.70;;;;;;;9.45;100.00;100476.97;5075444;28;20939;-66
2021/05/27 01:05:42;;;;;;;1.70;0.73;;;;;;;9.46;100.00;100470.44;5075431;28;20438;-66
2021/05/27 01:08:08;;;;;;;2.37;1.17;;;;;;;9.45;100.00;100485.88;5074265;28;20448;-67
2021/05/27 01:10:34;;;;;;;1.63;0.93;;;;;;;9.48;100.00;100485.28;5074969;28;20449;-68
2021/05/27 01:13:00;;;;;;;1.40;1.10;;;;;;;9.48;100.00;100481.78;5074555;28;20464;-67
2021/05/27 01:15:28;;;;;;;2.80;1.20;;;;;;;9.49;100.00;100480.69;5075262;28;20494;-68
2021/05/27 01:17:54;;;;;;;1.00;0.67;;;;;;;9.52;100.00;100485.50;5075062;28;20524;-67
2021/05/27 01:20:21;;;;;;;1.53;1.43;;;;;;;9.50;100.00;100482.28;5075419;28;20498;-67
2021/05/27 01:22:48;;;;;;;1.67;1.57;;;;;;;9.51;100.00;100479.25;5074311;28;20449;-67
2021/05/27 01:25:15;;;;;;;1.90;1.20;;;;;;;9.50;100.00;100482.28;5075062;28;20453;-67
2021/05/27 01:27:41;;;;;;;2.93;1.37;;;;;;;9.51;100.00;100478.47;5074699;28;20950;-66
2021/05/27 01:30:09;;;;;;;2.70;1.23;;;;;;;9.54;100.00;100475.19;5074665;28;20441;-65
2021/05/27 01:32:35;;;;;;;2.53;1.10;;;;;;;9.55;100.00;100482.19;5074035;28;20457;-66
2021/05/27 01:35:03;;;;;;;1.50;0.93;;;;;;;9.56;100.00;100483.78;5075058;28;20448;-67
2021/05/27 01:37:30;;;;;;;1.83;1.13;;;;;;;9.57;100.00;100486.22;5074520;28;20477;-66
2021/05/27 01:39:57;;;;;;;2.53;1.47;;;;;;;9.59;100.00;100485.91;5075062;28;20445;-66
2021/05/27 01:42:23;;;;;;;0.70;0.63;;;;;;;9.58;100.00;100487.00;5073755;28;20468;-66
2021/05/27 01:44:49;;;;;;;1.20;1.10;;;;;;;9.54;100.00;100483.28;5074612;28;20493;-66
2021/05/27 01:47:15;;;;;;;1.83;1.20;;;;;;;9.50;100.00;100484.97;5074316;28;20434;-67
2021/05/27 01:49:42;;;;;;;0.87;0.87;;;;;;;9.49;100.00;100483.38;5074250;28;20452;-67
2021/05/27 01:52:08;;;;;;;2.70;2.17;;;;;;;9.44;100.00;100491.56;5073442;28;20477;-66
2021/05/27 01:54:34;;;;;;;2.30;0.97;;;;;;;9.44;100.00;100491.56;5074347;28;20449;-67
2021/05/27 01:57:01;;;;;;;2.20;1.87;;;;;;;9.48;100.00;100495.31;5074384;28;20485;-66
2021/05/27 01:59:27;;;;;;;1.50;1.13;;;;;;;9.44;100.00;100492.38;5074447;28;20539;-66
2021/05/27 02:01:54;;;;;;;1.10;0.60;;;;;;;9.55;100.00;100490.28;5072805;28;20489;-66
2021/05/27 02:04:20;;;;;;;2.60;1.70;;;;;;;9.59;100.00;100491.31;5074306;28;20455;-66
2021/05/27 02:06:46;;;;;;;1.13;0.87;;;;;;;9.67;100.00;100487.13;5074204;28;20434;-67
2021/05/27 02:09:12;;;;;;;1.37;1.27;;;;;;;9.74;100.00;100495.63;5074286;28;20475;-66
2021/05/27 02:11:40;;;;;;;3.07;1.50;;;;;;;9.79;100.00;100490.16;5073166;28;20507;-67
2021/05/27 02:14:08;;;;;;;1.77;1.33;;;;;;;9.80;100.00;100489.84;5073134;28;20503;-67
2021/05/27 02:16:35;;;;;;;2.50;1.40;;;;;;;9.85;100.00;100489.75;5074338;28;20477;-67
2021/05/27 02:19:01;;;;;;;3.03;1.53;;;;;;;9.86;100.00;100491.34;5073787;28;20445;-66
2021/05/27 02:21:27;;;;;;;2.30;1.57;;;;;;;9.88;100.00;100496.50;5073078;28;20801;-67
2021/05/27 02:23:54;;;;;;;1.57;1.47;;;;;;;9.88;100.00;100493.00;5073775;28;20449;-67
2021/05/27 02:26:20;;;;;;;1.47;1.10;;;;;;;9.89;99.46;100494.59;5073877;28;20433;-64
2021/05/27 02:28:47;;;;;;;1.30;0.80;;;;;;;9.92;99.40;100496.72;5073927;28;20522;-64
2021/05/27 02:31:14;;;;;;;1.80;1.30;;;;;;;9.94;99.44;100494.50;5073006;28;20466;-65
2021/05/27 02:33:40;;;;;;;2.60;1.30;;;;;;;9.95;99.12;100499.59;5073368;28;20441;-66
2021/05/27 02:36:07;;;;;;;0.70;0.70;;;;;;;9.95;98.85;100499.59;5073315;28;21006;-66
2021/05/27 02:38:34;;;;;;;1.43;1.33;;;;;;;9.96;98.84;100494.97;5073736;28;20437;-66
2021/05/27 02:41:00;;;;;;;2.37;1.40;;;;;;;9.93;98.90;100490.97;5073072;28;20441;-67
2021/05/27 02:43:28;;;;;;;1.93;1.30;;;;;;;9.92;99.01;100499.41;5073154;28;20445;-67
2021/05/27 02:45:54;;;;;;;1.53;1.43;;;;;;;9.92;99.23;100496.72;5073658;28;20445;-66
2021/05/27 02:48:21;;;;;;;2.77;1.50;;;;;;;9.93;98.60;100495.59;5073284;28;20985;-66
2021/05/27 02:50:47;;;;;;;1.57;1.27;;;;;;;9.93;98.10;100496.41;5073130;28;20442;-66
2021/05/27 02:53:13;;;;;;;3.70;1.60;;;;;;;9.92;99.00;100499.41;5072634;28;20816;-66
2021/05/27 02:55:39;;;;;;;2.53;1.57;;;;;;;9.93;99.72;100506.41;5073292;28;20942;-66
2021/05/27 02:58:05;;;;;;;1.80;1.30;;;;;;;9.94;100.00;100508.81;5073344;28;20815;-67
2021/05/27 03:00:31;;;;;;;1.63;1.40;;;;;;;9.98;100.00;100511.72;5073293;28;20494;-66
2021/05/27 03:02:57;;;;;;;1.93;1.77;;;;;;;9.99;99.56;100505.22;5072378;28;20461;-66
2021/05/27 03:05:24;;;;;;;3.03;1.80;;;;;;;9.97;99.59;100510.13;5073472;28;20433;-66
2021/05/27 03:07:50;;;;;;;1.63;1.40;;;;;;;9.99;99.60;100506.00;5073462;28;20498;-66
2021/05/27 03:10:15;;;;;;;2.10;1.60;;;;;;;10.00;99.36;100506.81;5073809;28;20442;-66
2021/05/27 03:12:41;;;;;;;1.43;1.33;;;;;;;9.97;99.83;100505.53;5071998;28;20499;-66
2021/05/27 03:15:08;;;;;;;1.33;1.13;;;;;;;9.98;100.00;100509.81;5073239;28;20444;-67
2021/05/27 03:17:34;;;;;;;1.13;1.00;;;;;;;10.04;99.69;100513.22;5073139;28;20485;-67
2021/05/27 03:20:00;;;;;;;1.77;1.10;;;;;;;10.10;99.28;100502.03;5073204;28;20447;-67
2021/05/27 03:22:27;;;;;;;1.10;0.80;;;;;;;10.14;99.14;100507.66;5071808;28;20985;-67
2021/05/27 03:24:53;;;;;;;2.97;1.57;;;;;;;10.16;98.51;100505.44;5072996;28;20926;-66
2021/05/27 03:27:19;;;;;;;2.43;1.67;;;;;;;10.17;98.60;100512.44;5073040;28;20436;-67
2021/05/27 03:29:45;;;;;;;1.93;1.13;;;;;;;10.19;98.59;100510.25;5072671;28;20803;-66
2021/05/27 03:32:11;;;;;;;1.53;0.80;;;;;;;10.25;98.26;100510.97;5075703;28;20510;-67
2021/05/27 03:34:37;;;;;;;2.07;1.93;;;;;;;10.30;98.11;100517.09;5077057;28;20441;-67
2021/05/27 03:37:03;;;;;;;1.23;0.90;;;;;;;10.30;97.68;100522.50;5077063;28;20546;-66
2021/05/27 03:39:30;;;;;;;2.60;1.20;;;;;;;10.34;97.87;100522.72;5077048;28;20441;-66
2021/05/27 03:41:56;;;;;;;1.97;1.77;;;;;;;10.38;97.43;100523.72;5075755;28;20814;-66
2021/05/27 03:44:22;;;;;;;1.60;1.30;;;;;;;10.41;97.55;100520.41;5076937;28;20490;-66
2021/05/27 03:46:48;;;;;;;2.17;1.27;;;;;;;10.45;97.72;100524.13;5076707;28;20883;-67
2021/05/27 03:49:14;;;;;;;1.27;0.93;;;;;;;10.49;97.11;100530.56;5076511;28;20440;-67
2021/05/27 03:51:40;;;;;;;1.43;0.93;;;;;;;10.51;96.97;100528.31;5095664;22;21540;-68
2021/05/27 03:54:07;;;;;;;2.07;1.50;;;;;;;10.53;95.83;100533.44;5036824;28;20451;-68
2021/05/27 03:56:33;;;;;;;1.93;1.30;;;;;;;10.52;96.14;100531.84;5036932;28;20515;-68
2021/05/27 04:01:44;;;;;;;4.63;1.20;;;;;;;10.59;95.74;100534.94;5035825;28;20458;-68
2021/05/27 04:07:14;;;;;;;1.90;1.60;;;;;;;10.66;95.49;100535.31;5037831;28;20407;-67
2021/05/27 04:09:42;;;;;;;3.07;1.40;;;;;;;10.67;94.55;100534.25;5036763;28;20426;-68
2021/05/27 04:17:38;;;;;;;2.10;1.60;;;;;;;10.76;93.90;100535.13;5035561;28;20458;-68
2021/05/27 04:20:05;;;;;;;1.57;1.20;;;;;;;10.79;94.50;100539.94;5036234;28;20452;-73
2021/05/27 04:22:31;;;;;;;1.33;1.07;;;;;;;10.85;95.03;100544.16;5035352;28;20467;-71
2021/05/27 04:24:57;;;;;;;1.70;1.03;;;;;;;10.90;95.17;100551.38;5035951;28;20944;-69
2021/05/27 04:27:24;;;;;;;1.97;1.73;;;;;;;10.93;94.87;100547.22;5035016;28;20435;-68
2021/05/27 04:29:52;;;;;;;2.27;1.70;;;;;;;10.98;94.35;100552.53;5036214;28;20447;-68
2021/05/27 04:34:59;;;;;;;1.20;1.10;;;;;;;11.03;93.96;100550.53;5035648;28;20916;-68
2021/05/27 04:37:25;;;;;;;1.97;1.10;;;;;;;11.06;93.36;100559.97;5035382;28;20517;-68
2021/05/27 04:39:51;;;;;;;2.77;1.40;;;;;;;11.07;93.61;100556.16;5035992;28;20458;-68
2021/05/27 04:42:17;;;;;;;2.57;1.97;;;;;;;11.11;93.29;100566.09;5035562;28;20463;-68
2021/05/27 04:44:44;;;;;;;3.47;1.53;;;;;;;11.20;93.12;100565.34;5035868;28;20866;-68
2021/05/27 04:47:10;;;;;;;2.13;1.40;;;;;;;11.23;93.01;100565.53;5035018;28;20785;-68
2021/05/27 04:49:36;;;;;;;1.93;1.73;;;;;;;11.25;92.08;100563.34;5035286;28;20439;-68
2021/05/27 04:52:03;;;;;;;2.07;1.20;;;;;;;11.29;92.85;100564.34;5035593;28;20829;-69
2021/05/27 04:54:29;;;;;;;2.17;1.60;;;;;;;11.31;93.55;100564.81;5035882;28;20514;-69
2021/05/27 04:56:55;;;;;;;1.23;1.00;;;;;;;11.36;93.09;100569.31;5035044;28;20490;-69
2021/05/27 04:59:20;;;;;;;1.90;1.10;;;;;;;11.39;92.80;100566.00;5035245;28;20501;-69
2021/05/27 05:01:50;;;;;;;1.50;1.40;;;;;;;11.39;92.36;100566.00;5035347;28;20493;-69
2021/05/27 05:04:16;;;;;;;2.67;1.47;;;;;;;11.44;92.31;100556.94;5035653;28;20443;-69
2021/05/27 05:06:42;;;;;;;2.47;2.03;;;;;;;11.51;92.27;100565.44;5035326;28;20877;-67
2021/05/27 05:09:08;;;;;;;2.27;1.50;;;;;;;11.61;92.76;100566.00;5034912;28;20458;-68
2021/05/27 05:11:34;;;;;;;2.40;0.97;;;;;;;11.75;92.43;100560.53;5035314;28;20451;-69
2021/05/27 05:14:00;;;;;;;1.30;0.90;;;;;;;11.86;92.05;100561.91;5035450;28;20462;-72
2021/05/27 05:16:26;;;;;;;2.40;1.53;;;;;;;11.94;90.66;100562.25;5035298;28;20996;-69
2021/05/27 05:18:53;;;;;;;2.13;1.10;;;;;;;11.95;91.12;100566.56;5034814;28;20855;-69
2021/05/27 05:21:19;;;;;;;2.30;1.27;;;;;;;11.95;90.07;100564.66;5035337;28;20450;-69
2021/05/27 05:23:44;;;;;;;6.63;1.87;;;;;;;12.02;90.83;100567.75;5035272;28;20498;-68
2021/05/27 05:26:11;;;;;;;1.60;1.03;;;;;;;12.07;89.61;100564.09;5035144;28;20447;-67
2021/05/27 05:28:37;;;;;;;3.00;1.77;;;;;;;12.11;90.22;100568.59;5034476;28;20446;-67
2021/05/27 05:31:02;;;;;;;1.60;1.00;;;;;;;12.16;90.50;100569.56;5034897;28;20443;-67
2021/05/27 05:33:29;;;;;;;1.83;1.60;;;;;;;12.29;89.79;100569.47;5034907;28;20463;-66
2021/05/27 05:35:55;;;;;;;1.70;1.30;;;;;;;12.32;89.80;100574.28;5035038;28;20448;-68
2021/05/27 05:38:22;;;;;;;1.03;0.80;;;;;;;12.45;89.30;100577.22;5033885;28;20451;-67
2021/05/27 05:40:48;;;;;;;0.90;0.53;;;;;;;12.61;89.59;100578.38;5034738;28;20949;-66
2021/05/27 05:43:14;;;;;;;2.37;1.43;;;;;;;12.62;87.61;100569.94;5034769;28;20545;-66
2021/05/27 05:45:40;;;;;;;0.77;0.77;;;;;;;12.65;86.72;100581.28;5035071;28;20519;-67
2021/05/27 05:48:07;;;;;;;2.20;1.47;;;;;;;12.65;87.31;100578.56;5036610;28;20431;-67
2021/05/27 05:50:46;;;;;;;2.83;0.97;;;;;;;12.71;87.78;100583.53;5040163;28;20448;-68
2021/05/27 05:53:15;;;;;;;1.00;0.77;;;;;;;12.88;87.30;100580.06;5033781;28;20475;-71
2021/05/27 05:55:42;;;;;;;1.03;0.93;;;;;;;13.02;86.82;100586.19;5034561;28;20455;-69
2021/05/27 05:58:08;;;;;;;0.60;0.60;;;;;;;13.12;86.41;100582.34;5033547;28;20536;-68
2021/05/27 06:00:34;;;;;;;2.40;1.20;;;;;;;13.05;85.22;100587.44;5034453;28;20443;-69
2021/05/27 06:03:01;;;;;;;1.07;0.90;;;;;;;13.07;84.57;100582.50;5034363;28;20477;-70
2021/05/27 06:05:27;;;;;;;1.97;1.80;;;;;;;13.10;84.01;100587.28;5034342;28;20447;-70
2021/05/27 06:07:55;;;;;;;1.17;1.07;;;;;;;13.18;85.02;100586.50;5033025;28;20531;-70
2021/05/27 06:10:22;;;;;;;1.10;1.00;;;;;;;13.36;85.44;100588.16;5034224;28;20443;-69
2021/05/27 06:12:51;;;;;;;4.00;1.10;;;;;;;13.27;82.74;100587.34;5034174;28;20467;-71
2021/05/27 06:15:21;;;;;;;0.87;0.80;;;;;;;13.22;83.23;100597.56;5034257;28;20490;-70
2021/05/27 06:17:47;;;;;;;1.10;1.00;;;;;;;13.24;84.28;100593.44;5033204;28;20525;-71
2021/05/27 06:20:14;;;;;;;1.87;1.23;;;;;;;13.26;83.08;100604.78;5033995;28;20451;-69
2021/05/27 06:22:40;;;;;;;1.50;1.20;;;;;;;13.29;83.08;100604.16;5033889;28;20467;-71
2021/05/27 06:25:07;;;;;;;1.87;1.03;;;;;;;13.30;82.33;100608.47;5034023;28;20458;-70
2021/05/27 06:27:34;;;;;;;0.77;0.70;;;;;;;13.35;82.24;100605.59;5033663;28;20998;-69
2021/05/27 06:30:00;;;;;;;1.63;1.20;;;;;;;13.34;82.39;100614.88;5033486;28;20440;-68
2021/05/27 06:32:26;;;;;;;1.70;0.97;;;;;;;13.41;81.90;100611.69;5033277;28;20935;-69
2021/05/27 06:34:52;;;;;;;1.10;0.90;;;;;;;13.46;81.58;100610.72;5034008;28;20439;-70
2021/05/27 06:37:18;;;;;;;1.53;1.13;;;;;;;13.47;81.13;100613.13;5032593;28;21058;-70
2021/05/27 06:39:44;;;;;;;0.87;0.70;;;;;;;13.46;81.97;100621.59;5033817;28;20501;-69
2021/05/27 06:42:10;;;;;;;2.13;1.57;;;;;;;13.47;82.01;100615.06;5033388;28;20458;-70
2021/05/27 06:44:38;;;;;;;2.50;1.60;;;;;;;13.44;81.47;100612.97;5033646;28;20446;-69
2021/05/27 06:47:04;;;;;;;1.00;0.90;;;;;;;13.46;80.97;100619.72;5033054;28;20469;-70
2021/05/27 06:49:30;;;;;;;2.20;1.37;;;;;;;13.36;80.91;100622.72;5033234;28;20521;-68
2021/05/27 06:51:56;;;;;;;1.03;0.90;;;;;;;13.29;80.60;100628.66;5033316;28;20495;-69
2021/05/27 06:54:22;;;;;;;1.30;0.77;;;;;;;13.35;81.30;100632.81;5033578;28;20451;-69
2021/05/27 06:56:49;;;;;;;1.13;0.93;;;;;;;13.45;82.15;100628.97;5033089;28;20541;-69
2021/05/27 06:59:15;;;;;;;1.50;1.20;;;;;;;13.46;80.98;100629.75;5033164;28;20855;-69
2021/05/27 07:01:42;;;;;;;1.47;0.87;;;;;;;13.43;81.43;100631.22;5033477;28;20463;-69
2021/05/27 07:04:10;;;;;;;1.30;1.17;;;;;;;13.47;81.84;100637.63;5033545;28;21011;-68
2021/05/27 07:06:36;;;;;;;2.70;0.90;;;;;;;13.47;83.15;100628.66;5031243;28;20499;-68
2021/05/27 07:09:02;;;;;;;0.90;0.90;;;;;;;13.51;82.22;100635.06;5033396;28;20859;-69
2021/05/27 07:11:28;;;;;;;1.43;0.87;;;;;;;13.47;81.85;100631.38;5032594;28;20459;-69
2021/05/27 07:13:54;;;;;;;1.33;1.03;;;;;;;13.47;81.29;100639.56;5033532;28;20447;-69
2021/05/27 07:16:20;;;;;;;0.80;0.70;;;;;;;13.44;81.63;100645.63;5033038;28;20443;-69
2021/05/27 07:18:47;;;;;;;2.10;0.87;;;;;;;13.34;81.32;100642.09;5032175;28;20790;-70
2021/05/27 07:21:13;;;;;;;1.13;0.97;;;;;;;13.36;81.66;100639.03;5033312;28;20446;-70
2021/05/27 07:23:39;;;;;;;1.27;0.87;;;;;;;13.38;81.66;100640.34;5032776;28;20538;-70
2021/05/27 07:26:05;;;;;;;0.90;0.60;;;;;;;13.41;81.30;100648.97;5033214;28;20477;-69
2021/05/27 07:28:31;;;;;;;1.13;0.73;;;;;;;13.51;82.02;100654.13;5032333;28;20461;-69
2021/05/27 07:30:57;;;;;;;0.70;0.70;;;;;;;13.61;81.36;100641.00;5033188;28;20485;-68
2021/05/27 07:33:23;;;;;;;1.00;0.70;;;;;;;13.73;80.99;100645.81;5039952;28;20482;-69
2021/05/27 07:35:50;;;;;;;1.73;0.60;;;;;;;13.74;79.42;100654.78;5038359;28;20481;-70
2021/05/27 07:38:16;;;;;;;0.50;0.40;;;;;;;13.65;78.94;100645.81;5033127;28;20506;-69
2021/05/27 07:40:42;;;;;;;0.60;0.60;;;;;;;13.62;79.58;100658.13;5033165;28;20944;-69
2021/05/27 07:43:08;;;;;;;0.80;0.53;;;;;;;13.65;79.64;100662.94;5032644;28;20474;-69
2021/05/27 07:45:34;;;;;;;0.70;0.57;;;;;;;13.62;79.96;100652.69;5032906;28;20500;-69
2021/05/27 07:48:00;;;;;;;0.80;0.60;;;;;;;13.70;79.47;100649.16;5033022;28;20446;-69
2021/05/27 07:50:26;;;;;;;0.50;0.40;;;;;;;13.74;78.84;100661.00;5032815;28;20472;-67
2021/05/27 07:52:54;;;;;;;2.50;1.10;;;;;;;13.80;79.05;100664.38;5032491;28;20478;-70
2021/05/27 07:55:20;;;;;;;0.70;0.70;;;;;;;13.91;78.65;100659.41;5032637;28;20443;-69
2021/05/27 07:57:46;;;;;;;0.70;0.63;;;;;;;14.08;77.47;100670.31;5032108;28;20609;-68
2021/05/27 08:00:13;;;;;;;0.80;0.53;;;;;;;14.24;76.71;100673.31;5031909;28;20492;-69
2021/05/27 08:02:40;;;;;;;1.53;0.90;;;;;;;14.21;77.20;100663.03;5032841;28;20470;-67
2021/05/27 08:05:06;;;;;;;0.80;0.70;;;;;;;14.22;76.63;100670.13;5032624;28;20439;-70
2021/05/27 08:07:32;;;;;;;0.70;0.70;;;;;;;14.24;75.45;100674.09;5032544;28;20450;-70
2021/05/27 08:09:59;;;;;;;0.70;0.60;;;;;;;14.33;76.64;100666.72;5032663;28;20497;-69
2021/05/27 08:12:25;;;;;;;3.33;1.17;;;;;;;14.52;75.52;100673.75;5032678;28;20554;-69
2021/05/27 08:14:51;;;;;;;0.80;0.50;;;;;;;14.56;75.61;100671.97;5032322;28;20447;-69
2021/05/27 08:17:17;;;;;;;0.57;0.50;;;;;;;14.58;76.97;100675.97;5033629;28;20487;-69
2021/05/27 08:19:43;;;;;;;1.63;1.00;;;;;;;14.55;76.43;100671.16;5036175;28;20447;-70
2021/05/27 08:22:10;;;;;;;0.77;0.53;;;;;;;14.60;77.26;100681.09;5036211;28;20459;-68
2021/05/27 08:24:36;;;;;;;0.60;0.57;;;;;;;14.69;79.46;100684.59;5035493;28;20820;-69
2021/05/27 08:27:03;;;;;;;1.13;0.87;;;;;;;14.73;77.37;100688.28;5036190;28;20446;-69
2021/05/27 08:29:29;;;;;;;1.07;0.70;;;;;;;14.70;76.85;100686.22;5035462;28;20443;-70
2021/05/27 08:31:55;;;;;;;0.80;0.80;;;;;;;14.63;77.04;100683.19;5035800;28;20608;-69
2021/05/27 08:34:21;;;;;;;1.63;0.90;;;;;;;14.35;78.30;100678.09;5036247;28;20439;-68
2021/05/27 08:36:47;;;;;;;0.70;0.70;;;;;;;14.31;78.57;100687.25;5036126;28;20514;-70
2021/05/27 08:39:15;;;;;;;0.87;0.73;;;;;;;14.24;80.34;100692.38;5036170;28;20449;-69
2021/05/27 08:41:41;;;;;;;0.80;0.63;;;;;;;13.92;83.98;100693.69;5036309;28;20833;-69
2021/05/27 08:44:10;;;;;;;1.13;0.90;;;;;;;13.52;88.34;100691.91;5036363;28;20536;-69
2021/05/27 08:46:36;;;;;;;1.20;0.77;;;;;;;13.27;91.16;100693.44;5036108;28;21039;-68
2021/05/27 08:49:02;;;;;;;1.90;0.80;;;;;;;13.12;91.59;100693.84;5035688;28;20483;-69
2021/05/27 08:51:34;;;;;;;1.07;0.60;;;;;;;13.06;93.46;100686.97;5035275;28;20458;-69
2021/05/27 08:54:00;;;;;;;0.60;0.60;;;;;;;13.27;94.53;100684.47;5035925;28;20424;-70
2021/05/27 08:56:26;;;;;;;1.00;0.73;;;;;;;13.48;94.75;100684.69;5035992;28;20448;-68
2021/05/27 08:58:53;;;;;;;0.93;0.77;;;;;;;13.69;94.94;100684.88;5035830;28;20435;-69
2021/05/27 09:01:23;;;;;;;3.30;1.13;;;;;;;13.81;90.11;100682.28;5035653;28;20435;-69
2021/05/27 09:03:49;;;;;;;0.80;0.80;;;;;;;13.94;89.01;100681.34;5035196;28;20918;-71
2021/05/27 09:06:15;;;;;;;1.33;1.10;;;;;;;14.03;89.76;100690.34;5035126;28;20971;-71
2021/05/27 09:08:42;;;;;;;2.43;1.37;;;;;;;14.12;87.85;100684.84;5035736;28;20886;-70
2021/05/27 09:11:09;;;;;;;1.10;0.90;;;;;;;14.23;87.21;100683.41;5035272;28;20443;-69
2021/05/27 09:13:36;;;;;;;1.30;0.97;;;;;;;14.42;85.99;100674.88;5034926;28;20467;-70
2021/05/27 09:16:08;;;;;;;11.43;1.40;;;;;;;14.58;82.83;100686.09;5035247;28;20870;-69
2021/05/27 09:18:36;;;;;;;0.70;0.70;;;;;;;14.67;82.85;100686.84;5042539;28;20487;-69
2021/05/27 09:21:04;;;;;;;1.43;1.30;;;;;;;14.68;83.80;100688.44;5036887;28;20439;-71
2021/05/27 09:23:30;;;;;;;1.10;1.00;;;;;;;14.76;82.18;100693.09;5035145;28;21010;-69
2021/05/27 09:26:06;;;;;;;8.13;1.40;;;;;;;14.75;81.37;100690.69;5035340;28;20474;-70
2021/05/27 09:28:32;;;;;;;1.30;0.77;;;;;;;14.74;81.33;100687.16;5033391;28;21143;-70
2021/05/27 09:31:03;;;;;;;1.70;1.00;;;;;;;14.52;79.71;100690.91;5034988;28;20477;-69
2021/05/27 09:33:31;;;;;;;0.83;0.70;;;;;;;14.55;83.46;100698.44;5035148;28;20474;-69
2021/05/27 09:36:04;;;;;;;0.80;0.60;;;;;;;14.68;81.50;100698.56;5035032;28;20443;-68
2021/05/27 09:38:30;;;;;;;0.80;0.70;;;;;;;14.68;78.94;100699.34;5034749;28;21011;-69
2021/05/27 09:40:56;;;;;;;0.70;0.50;;;;;;;14.76;78.13;100689.56;5035124;28;20480;-70
2021/05/27 09:43:24;;;;;;;0.50;0.50;;;;;;;14.95;78.61;100691.88;5034520;28;20513;-69
2021/05/27 09:46:01;;;;;;;1.00;0.90;;;;;;;15.06;74.57;100691.19;5034324;28;20841;-68
2021/05/27 09:48:27;;;;;;;0.80;0.60;;;;;;;15.26;72.62;100689.63;5034840;28;20439;-69
2021/05/27 09:50:55;;;;;;;0.70;0.50;;;;;;;15.39;71.27;100694.06;5034804;28;20454;-69
2021/05/27 09:53:25;;;;;;;0.87;0.43;;;;;;;15.66;70.72;100700.16;5035861;28;20483;-69
2021/05/27 09:55:53;;;;;;;0.60;0.57;;;;;;;15.94;69.61;100685.97;5035135;28;20903;-69
2021/05/27 09:58:19;;;;;;;1.67;0.47;;;;;;;16.17;67.20;100697.34;5033209;28;20980;-71
2021/05/27 10:00:47;;;;;;;0.77;0.60;;;;;;;16.14;65.71;100685.16;5034158;28;20972;-69
2021/05/27 10:03:34;;;;;;;0.70;0.70;;;;;;;16.19;64.08;100684.94;5033742;28;20471;-67
2021/05/27 10:06:02;;;;;;;0.67;0.60;;;;;;;16.25;63.99;100677.34;5034301;28;20451;-69
2021/05/27 10:08:30;;;;;;;1.40;0.53;;;;;;;16.29;64.97;100679.06;5033462;28;20497;-68
2021/05/27 10:10:57;;;;;;;0.50;0.40;;;;;;;16.37;66.14;100689.09;5032434;28;20443;-68
2021/05/27 10:13:26;;;;;;;0.50;0.50;;;;;;;16.81;65.07;100697.66;5026378;28;20483;-67
2021/05/27 10:15:53;;;;;;;2.33;0.63;;;;;;;16.84;60.11;100686.03;5033488;28;20462;-67
2021/05/27 10:18:22;;;;;;;0.70;0.50;;;;;;;16.67;58.86;100697.16;5024535;28;21052;-69
2021/05/27 10:20:50;;;;;;;0.50;0.40;;;;;;;16.67;59.62;100697.16;5030382;28;20439;-67
2021/05/27 10:23:17;;;;;;;0.90;0.70;;;;;;;16.78;58.62;100697.56;5032803;28;20841;-68
2021/05/27 10:25:46;;;;;;;0.60;0.40;;;;;;;16.78;58.45;100703.03;5034274;28;20444;-69
2021/05/27 10:28:15;;;;;;;1.30;0.80;;;;;;;16.79;59.09;100697.22;5031653;28;20471;-70
2021/05/27 10:30:44;;;;;;;0.60;0.53;;;;;;;16.89;59.00;100694.00;5016224;28;20443;-68
2021/05/27 10:33:17;;;;;;;0.40;0.30;;;;;;;16.96;57.88;100698.94;5032199;28;20820;-67
2021/05/27 10:35:51;;;;;;;0.40;0.30;;;;;;;17.05;58.67;100694.16;5021620;28;20439;-70
2021/05/27 10:38:38;;;;;;;0.50;0.40;;;;;;;17.29;57.58;100698.81;5029639;28;20509;-69
2021/05/27 10:41:06;;;;;;;0.60;0.50;;;;;;;17.03;58.42;100690.94;5031050;28;20446;-69
2021/05/27 10:43:33;;;;;;;0.63;0.53;;;;;;;16.90;56.20;100695.59;5030458;28;20566;-68
2021/05/27 10:46:04;;;;;;;0.50;0.40;;;;;;;17.00;56.81;100710.81;5030839;28;20534;-69
2021/05/27 10:48:32;;;;;;;0.60;0.60;;;;;;;17.01;56.45;100703.38;5031038;28;20531;-66
2021/05/27 10:51:14;;;;;;;0.50;0.40;;;;;;;17.00;56.21;100699.03;5032612;28;20443;-68
2021/05/27 10:53:59;;;;;;;0.50;0.47;;;;;;;17.08;56.48;100704.41;5031704;28;20478;-68
2021/05/27 10:56:47;;;;;;;1.10;0.60;;;;;;;17.02;57.16;100705.78;5033158;28;20550;-68
2021/05/27 10:59:14;;;;;;;0.40;0.30;;;;;;;17.26;58.22;100702.22;5033628;28;20494;-68
2021/05/27 11:01:54;;;;;;;1.07;0.60;;;;;;;17.35;55.96;100713.88;5033551;28;20455;-68
2021/05/27 11:04:25;;;;;;;0.53;0.50;;;;;;;17.13;57.44;100706.94;5042902;28;20561;-68
2021/05/27 11:07:10;;;;;;;0.80;0.40;;;;;;;17.12;57.52;100723.66;5033531;28;20489;-67
2021/05/27 11:09:37;;;;;;;0.70;0.50;;;;;;;17.06;58.19;100706.69;5033437;28;20435;-67
2021/05/27 11:12:33;;;;;;;0.50;0.40;;;;;;;17.15;57.80;100712.06;5033095;28;20462;-68
2021/05/27 11:15:11;;;;;;;0.63;0.50;;;;;;;17.61;58.01;100720.91;5033255;28;20427;-69
2021/05/27 11:17:38;;;;;;;0.50;0.40;;;;;;;17.94;57.96;100717.22;5032918;28;20920;-67
2021/05/27 11:20:08;;;;;;;0.50;0.40;;;;;;;18.21;56.99;100710.94;5033320;28;20443;-68
2021/05/27 11:22:46;;;;;;;0.60;0.40;;;;;;;18.93;55.45;100710.09;5033080;28;20522;-67
2021/05/27 11:25:36;;;;;;;2.20;0.57;;;;;;;18.70;56.15;100699.72;5033151;28;20493;-68
2021/05/27 11:28:25;;;;;;;0.60;0.50;;;;;;;18.27;57.15;100717.75;5032988;28;20502;-68
2021/05/27 11:30:53;;;;;;;0.60;0.50;;;;;;;17.64;58.97;100720.22;5032893;28;20432;-68
2021/05/27 11:33:36;;;;;;;0.60;0.40;;;;;;;17.00;64.72;100719.00;5032843;28;20478;-67
2021/05/27 11:36:05;;;;;;;0.80;0.80;;;;;;;17.34;71.95;100704.03;5032744;28;20916;-68
2021/05/27 11:38:33;;;;;;;0.50;0.40;;;;;;;18.18;64.47;100710.84;5032843;28;20574;-69
2021/05/27 11:41:00;;;;;;;2.63;0.30;;;;;;;18.39;61.59;100714.16;5033098;28;20488;-67
2021/05/27 11:43:29;;;;;;;0.80;0.63;;;;;;;18.75;58.82;100715.94;5033103;28;20467;-67